createdAt,value
2023-03-02T00:01:54.330Z,4.95
2023-03-02T00:04:31.164Z,5.15
2023-03-02T00:07:02.899Z,6.53
2023-03-02T00:09:31.342Z,4.40
2023-03-02T00:11:58.826Z,4.63
2023-03-02T00:14:26.457Z,5.50
2023-03-02T00:16:54.289Z,5.50
2023-03-02T00:19:22.240Z,5.80
2023-03-02T00:21:49.807Z,7.85
2023-03-02T00:24:17.441Z,6.05
2023-03-02T00:26:45.531Z,6.32
2023-03-02T00:29:13.030Z,5.50
2023-03-02T00:31:41.206Z,5.90
2023-03-02T00:34:08.866Z,4.65
2023-03-02T00:36:36.893Z,5.53
2023-03-02T00:39:04.874Z,4.60
2023-03-02T00:41:32.937Z,6.97
2023-03-02T00:44:00.395Z,5.70
2023-03-02T00:46:28.697Z,5.75
2023-03-02T00:51:25.143Z,6.15
2023-03-02T00:53:52.869Z,2.92
2023-03-02T00:56:20.551Z,6.32
2023-03-02T00:58:48.768Z,3.42
2023-03-02T01:01:18.573Z,4.40
2023-03-02T01:03:46.670Z,3.08
2023-03-02T01:06:19.056Z,5.35
2023-03-02T01:08:47.676Z,6.63
2023-03-02T01:11:17.348Z,4.90
2023-03-02T01:13:45.332Z,4.38
2023-03-02T01:16:13.108Z,3.30
2023-03-02T01:18:41.210Z,5.07
2023-03-02T01:21:12.998Z,3.25
2023-03-02T01:23:40.902Z,5.20
2023-03-02T01:26:08.566Z,5.65
2023-03-02T01:28:36.145Z,6.10
2023-03-02T01:31:04.693Z,4.32
2023-03-02T01:33:32.990Z,5.63
2023-03-02T01:36:00.855Z,5.13
2023-03-02T01:38:29.120Z,5.30
2023-03-02T01:40:57.156Z,4.40
2023-03-02T01:43:24.767Z,6.45
2023-03-02T01:46:07.206Z,6.65
2023-03-02T01:48:46.990Z,5.35
2023-03-02T01:51:18.567Z,4.43
2023-03-02T01:53:48.331Z,4.88
2023-03-02T01:56:26.436Z,4.70
2023-03-02T01:59:02.058Z,5.00
2023-03-02T02:01:34.500Z,5.05
2023-03-02T02:04:02.920Z,6.05
2023-03-02T02:06:51.499Z,5.20
2023-03-02T02:09:22.036Z,8.02
2023-03-02T02:11:49.773Z,7.20
2023-03-02T02:14:17.404Z,6.22
2023-03-02T02:16:45.010Z,4.65
2023-03-02T02:19:34.293Z,3.38
2023-03-02T02:24:38.990Z,5.95
2023-03-02T02:27:06.440Z,4.00
2023-03-02T02:29:46.045Z,6.75
2023-03-02T02:32:18.382Z,5.00
2023-03-02T02:35:01.146Z,6.38
2023-03-02T02:37:38.461Z,7.03
2023-03-02T02:40:12.481Z,5.70
2023-03-02T02:42:48.059Z,4.45
2023-03-02T02:45:25.637Z,5.63
2023-03-02T02:47:56.028Z,5.35
2023-03-02T02:50:33.830Z,8.32
2023-03-02T02:53:11.391Z,3.70
2023-03-02T02:55:40.741Z,4.55
2023-03-02T02:58:25.989Z,3.72
2023-03-02T03:00:54.815Z,5.07
2023-03-02T03:03:35.496Z,3.65
2023-03-02T03:06:06.833Z,5.75
2023-03-02T03:08:46.432Z,8.20
2023-03-02T03:11:23.452Z,4.93
2023-03-02T03:14:00.654Z,4.25
2023-03-02T03:16:30.490Z,5.93
2023-03-02T03:19:05.551Z,4.93
2023-03-02T03:21:33.891Z,5.78
2023-03-02T03:24:01.365Z,3.70
2023-03-02T03:26:29.251Z,6.82
2023-03-02T03:28:57.397Z,3.53
2023-03-02T03:31:27.061Z,7.43
2023-03-02T03:33:56.593Z,4.40
2023-03-02T03:36:24.087Z,5.10
2023-03-02T03:38:51.591Z,3.60
2023-03-02T03:41:19.418Z,4.32
2023-03-02T03:43:47.372Z,5.47
2023-03-02T03:46:15.108Z,4.95
2023-03-02T03:48:43.137Z,2.75
2023-03-02T03:51:10.849Z,4.93
2023-03-02T03:53:38.871Z,3.73
2023-03-02T03:56:07.775Z,5.10
2023-03-02T03:58:35.464Z,3.35
2023-03-02T04:01:03.805Z,3.05
2023-03-02T04:03:31.888Z,5.57
2023-03-02T04:06:00.778Z,3.08
2023-03-02T04:08:28.479Z,5.32
2023-03-02T04:10:56.202Z,4.40
2023-03-02T04:13:23.803Z,4.70
2023-03-02T04:15:51.229Z,4.80
2023-03-02T04:18:18.709Z,5.70
2023-03-02T04:20:47.397Z,2.70
2023-03-02T04:23:15.052Z,3.80
2023-03-02T04:25:42.812Z,3.58
2023-03-02T04:28:10.634Z,3.50
2023-03-02T04:30:38.629Z,3.75
2023-03-02T04:33:06.651Z,3.83
2023-03-02T04:35:34.628Z,7.72
2023-03-02T04:38:02.192Z,4.30
2023-03-02T04:40:30.063Z,3.80
2023-03-02T04:42:57.855Z,5.97
2023-03-02T04:45:25.638Z,6.15
2023-03-02T04:47:53.367Z,7.30
2023-03-02T04:50:21.365Z,3.65
2023-03-02T04:52:50.219Z,5.25
2023-03-02T04:55:23.067Z,5.30
2023-03-02T04:57:50.753Z,3.25
2023-03-02T05:00:21.072Z,1.88
2023-03-02T05:02:50.771Z,2.17
2023-03-02T05:05:21.622Z,4.43
2023-03-02T05:07:49.890Z,6.20
2023-03-02T05:10:18.696Z,5.50
2023-03-02T05:12:54.948Z,4.57
2023-03-02T05:15:24.268Z,4.05
2023-03-02T05:17:52.515Z,7.68
2023-03-02T05:20:20.539Z,4.93
2023-03-02T05:22:49.510Z,5.57
2023-03-02T05:25:17.059Z,5.03
2023-03-02T05:27:44.596Z,6.05
2023-03-02T05:30:13.351Z,3.15
2023-03-02T05:32:42.880Z,7.32
2023-03-02T05:35:10.963Z,5.82
2023-03-02T05:37:44.810Z,5.50
2023-03-02T05:40:19.064Z,6.75
2023-03-02T05:42:48.677Z,7.57
2023-03-02T05:45:27.583Z,2.08
2023-03-02T05:50:23.514Z,7.30
2023-03-02T05:52:51.435Z,6.57
2023-03-02T05:55:19.245Z,4.40
2023-03-02T05:57:49.436Z,4.32
2023-03-02T06:00:18.856Z,7.20
2023-03-02T06:02:48.348Z,5.70
2023-03-02T06:05:19.186Z,7.38
2023-03-02T06:07:46.738Z,5.80
2023-03-02T06:12:46.633Z,6.57
2023-03-02T06:15:14.234Z,5.72
2023-03-02T06:17:41.830Z,6.00
2023-03-02T06:20:11.440Z,4.53
2023-03-02T06:22:42.390Z,4.95
2023-03-02T06:25:12.669Z,7.53
2023-03-02T06:27:41.412Z,4.07
2023-03-02T06:30:13.909Z,9.52
2023-03-02T06:32:44.036Z,7.05
2023-03-02T06:35:12.847Z,4.50
2023-03-02T06:37:42.273Z,9.35
2023-03-02T06:40:14.074Z,5.82
2023-03-02T06:42:43.611Z,4.80
2023-03-02T06:45:11.701Z,7.50
2023-03-02T06:47:39.707Z,7.38
2023-03-02T06:50:09.962Z,9.15
2023-03-02T06:52:40.443Z,12.88
2023-03-02T06:55:08.747Z,9.02
2023-03-02T06:57:36.671Z,8.55
2023-03-02T07:00:10.193Z,9.40
2023-03-02T07:02:43.174Z,7.18
2023-03-02T07:05:11.057Z,7.03
2023-03-02T07:07:39.133Z,9.13
2023-03-02T07:10:08.098Z,7.10
2023-03-02T07:12:38.824Z,11.52
2023-03-02T07:15:11.230Z,13.25
2023-03-02T07:17:40.047Z,5.47
2023-03-02T07:22:37.541Z,12.43
2023-03-02T07:25:05.599Z,12.63
2023-03-02T07:27:33.645Z,9.55
2023-03-02T07:30:01.518Z,13.52
2023-03-02T07:32:29.194Z,8.52
2023-03-02T07:34:56.740Z,12.65
2023-03-02T07:37:24.364Z,9.68
2023-03-02T07:39:52.022Z,11.43
2023-03-02T07:42:19.591Z,13.13
2023-03-02T07:44:47.306Z,10.80
2023-03-02T07:47:14.829Z,11.35
2023-03-02T07:49:42.467Z,12.48
2023-03-02T07:52:10.071Z,11.35
2023-03-02T07:54:37.959Z,10.18
2023-03-02T07:57:05.826Z,8.50
2023-03-02T07:59:33.717Z,8.32
2023-03-02T08:02:01.653Z,9.55
2023-03-02T08:04:29.267Z,11.77
2023-03-02T08:06:56.707Z,11.52
2023-03-02T08:09:24.268Z,13.75
2023-03-02T08:11:51.729Z,12.80
2023-03-02T08:14:19.210Z,11.20
2023-03-02T08:16:46.973Z,10.15
2023-03-02T08:19:14.614Z,14.45
2023-03-02T08:21:42.140Z,11.80
2023-03-02T08:24:10.822Z,16.40
2023-03-02T08:26:38.635Z,8.73
2023-03-02T08:29:07.029Z,11.10
2023-03-02T08:31:35.038Z,10.20
2023-03-02T08:34:03.893Z,14.38
2023-03-02T08:36:32.271Z,16.50
2023-03-02T08:39:00.199Z,11.48
2023-03-02T08:41:27.902Z,13.35
2023-03-02T08:43:56.618Z,8.65
2023-03-02T08:46:24.270Z,7.10
2023-03-02T08:48:52.180Z,15.52
2023-03-02T08:51:23.525Z,10.23
2023-03-02T08:53:55.334Z,13.70
2023-03-02T08:56:28.847Z,9.07
2023-03-02T08:59:00.133Z,11.60
2023-03-02T09:01:34.254Z,12.27
2023-03-02T09:04:02.886Z,14.55
2023-03-02T09:06:32.296Z,12.98
2023-03-02T09:09:00.176Z,11.52
2023-03-02T09:11:28.158Z,14.07
2023-03-02T09:13:56.349Z,10.45
2023-03-02T09:16:25.921Z,10.13
2023-03-02T09:18:54.566Z,13.35
2023-03-02T09:21:22.549Z,7.30
2023-03-02T09:23:53.819Z,10.30
2023-03-02T09:26:22.078Z,14.88
2023-03-02T09:28:49.796Z,18.13
2023-03-02T09:31:17.484Z,12.00
2023-03-02T09:33:45.064Z,12.02
2023-03-02T09:36:19.268Z,10.82
2023-03-02T09:38:48.163Z,13.90
2023-03-02T09:41:21.679Z,15.20
2023-03-02T09:44:13.644Z,15.82
2023-03-02T09:46:46.205Z,12.48
2023-03-02T09:49:38.532Z,14.40
2023-03-02T09:52:40.657Z,12.98
2023-03-02T09:55:18.598Z,12.93
2023-03-02T09:57:47.215Z,15.57
2023-03-02T10:00:24.347Z,17.67
2023-03-02T10:02:56.260Z,14.98
2023-03-02T10:05:34.299Z,14.45
2023-03-02T10:08:02.132Z,17.20
2023-03-02T10:10:49.074Z,13.27
2023-03-02T10:13:42.390Z,11.25
2023-03-02T10:16:35.407Z,12.35
2023-03-02T10:19:13.870Z,22.92
2023-03-02T10:21:47.445Z,15.85
2023-03-02T10:24:39.556Z,17.15
2023-03-02T10:27:36.643Z,10.43
2023-03-02T10:30:19.529Z,20.33
2023-03-02T10:32:52.483Z,20.30
2023-03-02T10:35:23.278Z,13.82
2023-03-02T10:37:55.369Z,15.40
2023-03-02T10:40:39.780Z,12.35
2023-03-02T10:43:31.518Z,10.57
2023-03-02T10:46:03.402Z,14.93
2023-03-02T10:48:31.338Z,13.10
2023-03-02T10:50:59.265Z,10.18
2023-03-02T10:53:27.146Z,7.72
2023-03-02T10:55:55.628Z,12.40
2023-03-02T10:58:34.329Z,13.30
2023-03-02T11:01:06.139Z,12.48
2023-03-02T11:03:34.330Z,14.50
2023-03-02T11:06:19.507Z,5.40
2023-03-02T11:09:02.291Z,11.25
2023-03-02T11:11:30.713Z,11.52
2023-03-02T11:14:27.530Z,9.60
2023-03-02T11:16:56.756Z,9.20
2023-03-02T11:19:38.652Z,7.97
2023-03-02T11:22:38.656Z,8.63
2023-03-02T11:25:12.742Z,10.25
2023-03-02T11:27:44.185Z,11.60
2023-03-02T11:30:22.755Z,10.63
2023-03-02T11:32:50.272Z,6.65
2023-03-02T11:35:32.914Z,8.75
2023-03-02T11:38:21.703Z,7.45
2023-03-02T11:41:10.516Z,9.23
2023-03-02T11:43:38.062Z,9.45
2023-03-02T11:46:14.006Z,7.90
2023-03-02T11:48:50.881Z,7.32
2023-03-02T11:51:23.512Z,11.88
2023-03-02T11:54:13.979Z,12.82
2023-03-02T11:56:42.330Z,9.65
2023-03-02T11:59:17.410Z,13.98
2023-03-02T12:01:49.727Z,9.45
2023-03-02T12:04:47.451Z,7.63
2023-03-02T12:07:22.802Z,10.07
2023-03-02T12:10:09.226Z,8.55
2023-03-02T12:12:44.163Z,7.90
2023-03-02T12:15:37.334Z,8.48
2023-03-02T12:18:28.450Z,12.30
2023-03-02T12:21:03.504Z,10.18
2023-03-02T12:23:34.235Z,7.63
2023-03-02T12:26:22.097Z,9.55
2023-03-02T12:28:57.716Z,8.23
2023-03-02T12:31:27.008Z,7.82
2023-03-02T12:33:54.681Z,8.10
2023-03-02T12:36:31.500Z,9.45
2023-03-02T12:39:17.859Z,10.32
2023-03-02T12:41:54.035Z,8.48
2023-03-02T12:44:47.759Z,5.75
2023-03-02T12:47:27.289Z,7.00
2023-03-02T12:50:01.307Z,12.93
2023-03-02T12:52:33.914Z,8.73
2023-03-02T12:55:16.497Z,6.60
2023-03-02T12:57:51.785Z,9.20
2023-03-02T13:00:23.148Z,10.05
2023-03-02T13:02:53.981Z,10.88
2023-03-02T13:05:28.165Z,7.93
2023-03-02T13:08:05.086Z,6.70
2023-03-02T13:10:49.904Z,6.97
2023-03-02T13:13:27.256Z,6.75
2023-03-02T13:16:05.603Z,8.68
2023-03-02T13:21:05.902Z,10.95
2023-03-02T13:23:34.792Z,6.70
2023-03-02T13:26:05.753Z,7.10
2023-03-02T13:28:36.523Z,6.75
2023-03-02T13:31:22.063Z,8.32
2023-03-02T13:33:52.546Z,7.85
2023-03-02T13:36:35.557Z,8.20
2023-03-02T13:39:07.140Z,9.00
2023-03-02T13:41:36.816Z,5.93
2023-03-02T13:44:20.010Z,6.20
2023-03-02T13:46:47.831Z,8.23
2023-03-02T13:49:33.326Z,10.30
2023-03-02T13:52:06.363Z,6.60
2023-03-02T13:54:37.617Z,7.20
2023-03-02T13:57:06.631Z,8.32
2023-03-02T13:59:36.464Z,9.23
2023-03-02T14:02:19.972Z,9.50
2023-03-02T14:04:47.569Z,7.88
2023-03-02T14:07:15.125Z,8.18
2023-03-02T14:09:43.673Z,6.50
2023-03-02T14:12:24.722Z,5.40
2023-03-02T14:14:54.669Z,9.43
2023-03-02T14:17:24.743Z,8.27
2023-03-02T14:19:55.360Z,10.07
2023-03-02T14:22:25.416Z,8.32
2023-03-02T14:24:53.704Z,10.00
2023-03-02T14:27:28.599Z,7.03
2023-03-02T14:29:56.652Z,11.68
2023-03-02T14:32:24.269Z,10.52
2023-03-02T14:34:51.767Z,8.50
2023-03-02T14:37:24.835Z,6.97
2023-03-02T14:39:56.872Z,8.15
2023-03-02T14:42:24.626Z,7.68
2023-03-02T14:44:52.917Z,11.50
2023-03-02T14:47:21.840Z,7.00
2023-03-02T14:49:50.700Z,8.77
2023-03-02T14:52:38.977Z,7.55
2023-03-02T14:55:15.334Z,8.15
2023-03-02T14:57:42.925Z,6.70
2023-03-02T15:00:15.524Z,9.13
2023-03-02T15:02:47.063Z,9.18
2023-03-02T15:05:15.043Z,5.80
2023-03-02T15:07:43.041Z,7.97
2023-03-02T15:10:15.202Z,9.27
2023-03-02T15:12:43.404Z,7.80
2023-03-02T15:15:11.524Z,6.25
2023-03-02T15:17:39.726Z,7.40
2023-03-02T15:20:14.127Z,7.97
2023-03-02T15:22:43.697Z,11.13
2023-03-02T15:25:11.690Z,8.93
2023-03-02T15:27:39.421Z,5.75
2023-03-02T15:30:12.357Z,8.40
2023-03-02T15:32:43.644Z,9.73
2023-03-02T15:35:12.533Z,7.47
2023-03-02T15:37:40.522Z,8.95
2023-03-02T15:40:09.854Z,7.68
2023-03-02T15:42:39.294Z,5.93
2023-03-02T15:45:07.448Z,8.05
2023-03-02T15:47:34.955Z,8.93
2023-03-02T15:50:04.504Z,7.85
2023-03-02T15:52:34.899Z,7.40
2023-03-02T15:55:02.712Z,8.50
2023-03-02T15:57:30.216Z,6.25
2023-03-02T16:00:01.192Z,7.15
2023-03-02T16:02:29.377Z,8.37
2023-03-02T16:04:57.057Z,9.30
2023-03-02T16:07:24.567Z,8.65
2023-03-02T16:09:52.998Z,4.97
2023-03-02T16:12:23.433Z,10.27
2023-03-02T16:14:51.361Z,6.90
2023-03-02T16:17:19.261Z,5.78
2023-03-02T16:19:47.645Z,6.00
2023-03-02T16:22:15.475Z,9.05
2023-03-02T16:24:43.268Z,9.63
2023-03-02T16:27:11.062Z,7.85
2023-03-02T16:29:39.124Z,5.18
2023-03-02T16:32:09.088Z,7.95
2023-03-02T16:34:36.742Z,5.20
2023-03-02T16:37:04.414Z,4.13
2023-03-02T16:39:33.033Z,3.97
2023-03-02T16:42:00.933Z,9.90
2023-03-02T16:44:28.929Z,4.87
2023-03-02T16:46:57.550Z,8.85
2023-03-02T16:49:25.182Z,6.40
2023-03-02T16:51:59.349Z,7.13
2023-03-02T16:54:27.302Z,6.45
2023-03-02T16:56:54.922Z,6.55
2023-03-02T16:59:22.441Z,8.25
2023-03-02T17:01:49.999Z,9.02
2023-03-02T17:04:18.514Z,5.90
2023-03-02T17:09:28.554Z,7.95
2023-03-02T17:11:57.423Z,7.80
2023-03-02T17:14:25.406Z,9.43
2023-03-02T17:16:53.823Z,7.55
2023-03-02T17:19:22.206Z,6.85
2023-03-02T17:21:50.475Z,7.35
2023-03-02T17:24:18.451Z,7.82
2023-03-02T17:26:47.250Z,9.32
2023-03-02T17:29:14.823Z,9.70
2023-03-02T17:31:42.833Z,7.32
2023-03-02T17:34:11.539Z,6.45
2023-03-02T17:36:39.229Z,9.07
2023-03-02T17:39:07.984Z,8.07
2023-03-02T17:41:37.600Z,10.40
2023-03-02T17:44:06.386Z,11.68
2023-03-02T17:46:34.508Z,4.93
2023-03-02T17:49:02.099Z,8.48
2023-03-02T17:51:30.320Z,7.10
2023-03-02T17:53:58.097Z,6.40
2023-03-02T17:56:27.727Z,7.03
2023-03-02T17:59:05.083Z,11.57
2023-03-02T18:01:33.708Z,9.70
2023-03-02T18:04:01.331Z,8.30
2023-03-02T18:06:29.428Z,12.30
2023-03-02T18:08:57.022Z,10.65
2023-03-02T18:11:26.492Z,12.52
2023-03-02T18:16:29.282Z,9.88
2023-03-02T18:18:57.854Z,10.00
2023-03-02T18:21:26.337Z,7.55
2023-03-02T18:23:54.728Z,9.23
2023-03-02T18:26:22.984Z,7.80
2023-03-02T18:28:51.572Z,6.07
2023-03-02T18:31:19.923Z,9.00
2023-03-02T18:33:48.896Z,7.13
2023-03-02T18:36:17.347Z,7.40
2023-03-02T18:38:45.495Z,7.03
2023-03-02T18:41:14.356Z,6.50
2023-03-02T18:43:43.331Z,6.05
2023-03-02T18:46:24.090Z,5.47
2023-03-02T18:48:53.149Z,7.70
2023-03-02T18:51:22.896Z,7.40
2023-03-02T18:53:52.021Z,7.28
2023-03-02T18:56:20.487Z,7.78
2023-03-02T18:58:49.680Z,8.43
2023-03-02T19:01:18.324Z,6.53
2023-03-02T19:03:46.466Z,5.75
2023-03-02T19:06:15.887Z,6.30
2023-03-02T19:08:43.940Z,6.50
2023-03-02T19:11:12.343Z,6.07
2023-03-02T19:13:41.523Z,11.52
2023-03-02T19:16:09.744Z,6.43
2023-03-02T19:18:38.063Z,4.72
2023-03-02T19:21:06.643Z,8.23
2023-03-02T19:23:34.953Z,9.05
